createdAt,value
2019-06-26T00:01:50.351Z,55.85
2019-06-26T00:04:20.514Z,56.18
2019-06-26T00:06:51.696Z,56.13
2019-06-26T00:09:21.891Z,55.95
2019-06-26T00:11:52.100Z,56.14
2019-06-26T00:14:22.261Z,56.25
2019-06-26T00:16:52.435Z,56.12
2019-06-26T00:19:23.020Z,56.27
2019-06-26T00:21:53.103Z,56.34
2019-06-26T00:24:23.327Z,56.54
2019-06-26T00:26:53.525Z,56.73
2019-06-26T00:29:23.624Z,56.49
2019-06-26T00:31:53.771Z,56.32
2019-06-26T00:34:23.932Z,56.13
2019-06-26T00:36:54.152Z,56.20
2019-06-26T00:39:24.251Z,56.12
2019-06-26T00:41:54.835Z,56.13
2019-06-26T00:44:24.920Z,56.36
2019-06-26T00:46:55.915Z,56.55
2019-06-26T00:49:26.262Z,56.68
2019-06-26T00:51:56.404Z,56.67
2019-06-26T00:54:27.534Z,56.52
2019-06-26T00:56:57.729Z,56.39
2019-06-26T00:59:28.607Z,56.37
2019-06-26T01:01:58.798Z,56.20
2019-06-26T01:04:32.827Z,56.24
2019-06-26T01:07:03.534Z,56.40
2019-06-26T01:09:33.778Z,56.62
2019-06-26T01:12:03.974Z,56.85
2019-06-26T01:14:44.809Z,57.16
2019-06-26T01:17:16.169Z,57.96
2019-06-26T01:19:48.294Z,58.27
2019-06-26T01:22:18.478Z,58.31
2019-06-26T01:24:48.669Z,57.18
2019-06-26T01:27:19.870Z,57.61
2019-06-26T01:29:50.483Z,57.13
2019-06-26T01:32:20.599Z,57.15
2019-06-26T01:34:50.800Z,57.14
2019-06-26T01:37:21.392Z,57.25
2019-06-26T01:39:51.521Z,56.84
2019-06-26T01:42:22.086Z,56.53
2019-06-26T01:44:52.939Z,56.57
2019-06-26T01:47:23.433Z,56.81
2019-06-26T01:49:53.535Z,56.97
2019-06-26T01:52:26.002Z,57.38
2019-06-26T01:54:57.468Z,57.49
2019-06-26T01:57:28.052Z,57.76
2019-06-26T01:59:58.671Z,57.82
2019-06-26T02:02:29.668Z,58.14
2019-06-26T02:05:00.200Z,58.45
2019-06-26T02:07:30.274Z,58.66
2019-06-26T02:10:00.845Z,58.85
2019-06-26T02:12:32.064Z,60.07
2019-06-26T02:15:02.491Z,59.98
2019-06-26T02:17:32.573Z,59.64
2019-06-26T02:20:06.872Z,59.17
2019-06-26T02:22:43.284Z,58.98
2019-06-26T02:25:14.670Z,59.13
2019-06-26T02:27:45.141Z,59.20
2019-06-26T02:30:15.272Z,59.18
2019-06-26T02:32:45.835Z,59.40
2019-06-26T02:35:16.027Z,59.62
2019-06-26T02:37:46.309Z,61.03
2019-06-26T02:40:17.102Z,60.57
2019-06-26T02:42:47.338Z,60.71
2019-06-26T02:45:18.832Z,60.52
2019-06-26T02:47:49.663Z,60.46
2019-06-26T02:50:21.791Z,60.49
2019-06-26T02:52:53.931Z,60.50
2019-06-26T02:55:24.149Z,60.64
2019-06-26T02:57:54.224Z,61.14
2019-06-26T03:00:24.498Z,61.40
2019-06-26T03:03:02.768Z,61.32
2019-06-26T03:05:33.938Z,61.13
2019-06-26T03:08:04.029Z,60.97
2019-06-26T03:10:34.208Z,61.06
2019-06-26T03:13:04.970Z,61.61
2019-06-26T03:15:35.219Z,61.82
2019-06-26T03:18:06.700Z,61.77
2019-06-26T03:20:41.292Z,61.73
2019-06-26T03:23:17.308Z,61.70
2019-06-26T03:25:48.036Z,61.59
2019-06-26T03:28:18.523Z,61.49
2019-06-26T03:30:48.996Z,61.48
2019-06-26T03:33:19.075Z,61.25
2019-06-26T03:35:53.357Z,61.24
2019-06-26T03:38:24.561Z,60.86
2019-06-26T03:40:56.430Z,60.97
2019-06-26T03:43:28.719Z,60.93
2019-06-26T03:45:59.381Z,61.05
2019-06-26T03:48:30.089Z,61.07
2019-06-26T03:51:01.335Z,60.88
2019-06-26T03:53:31.773Z,60.79
2019-06-26T03:56:01.928Z,60.91
2019-06-26T03:58:32.043Z,60.26
2019-06-26T04:01:02.677Z,59.45
2019-06-26T04:03:33.413Z,59.65
2019-06-26T04:06:03.628Z,59.27
2019-06-26T04:08:33.632Z,58.30
2019-06-26T04:11:04.119Z,57.62
2019-06-26T04:13:34.226Z,57.55
2019-06-26T04:16:04.269Z,57.66
2019-06-26T04:18:34.332Z,57.53
2019-06-26T04:21:04.435Z,57.23
2019-06-26T04:23:35.029Z,56.62
2019-06-26T04:26:05.153Z,56.32
2019-06-26T04:28:35.204Z,56.18
2019-06-26T04:31:05.333Z,56.05
2019-06-26T04:33:38.382Z,56.12
2019-06-26T04:36:08.543Z,55.93
2019-06-26T04:38:39.052Z,55.81
2019-06-26T04:41:09.704Z,55.68
2019-06-26T04:43:40.308Z,55.93
2019-06-26T04:46:10.540Z,55.81
2019-06-26T04:48:40.605Z,56.07
2019-06-26T04:51:12.827Z,56.21
2019-06-26T04:53:43.862Z,55.98
2019-06-26T04:56:13.881Z,55.99
2019-06-26T04:58:44.063Z,55.61
2019-06-26T05:01:21.468Z,55.51
2019-06-26T05:03:51.818Z,55.12
2019-06-26T05:06:22.838Z,54.88
2019-06-26T05:08:53.382Z,54.74
2019-06-26T05:11:23.399Z,54.57
2019-06-26T05:13:53.451Z,54.24
2019-06-26T05:16:25.869Z,54.05
2019-06-26T05:18:56.616Z,54.00
2019-06-26T05:21:26.678Z,53.90
2019-06-26T05:23:57.715Z,54.08
2019-06-26T05:26:30.173Z,54.19
2019-06-26T05:29:00.312Z,54.37
2019-06-26T05:31:30.823Z,54.15
2019-06-26T05:34:01.783Z,53.99
2019-06-26T05:36:32.228Z,53.78
2019-06-26T05:39:04.074Z,53.87
2019-06-26T05:41:38.053Z,53.90
2019-06-26T05:44:09.224Z,54.07
2019-06-26T05:46:40.351Z,54.53
2019-06-26T05:49:10.609Z,54.59
2019-06-26T05:51:41.964Z,54.59
2019-06-26T05:54:12.337Z,54.88
2019-06-26T05:56:45.277Z,55.13
2019-06-26T05:59:14.714Z,55.43
2019-06-26T06:01:48.389Z,55.57
2019-06-26T06:04:27.910Z,55.65
2019-06-26T06:06:55.837Z,55.70
2019-06-26T06:09:26.488Z,55.88
2019-06-26T06:11:57.072Z,56.08
2019-06-26T06:14:27.721Z,56.03
2019-06-26T06:16:59.317Z,56.03
2019-06-26T06:19:34.831Z,55.92
2019-06-26T06:22:05.525Z,55.22
2019-06-26T06:24:35.982Z,55.35
2019-06-26T06:27:08.513Z,55.68
2019-06-26T06:29:38.693Z,55.80
2019-06-26T06:32:09.772Z,55.89
2019-06-26T06:34:40.247Z,56.13
2019-06-26T06:37:10.694Z,56.49
2019-06-26T06:39:40.965Z,56.07
2019-06-26T06:42:11.436Z,56.02
2019-06-26T06:44:42.782Z,55.63
2019-06-26T06:47:13.374Z,55.78
2019-06-26T06:49:43.515Z,55.99
2019-06-26T06:52:16.710Z,55.54
2019-06-26T06:54:46.916Z,55.40
2019-06-26T06:57:17.375Z,55.56
2019-06-26T06:59:47.786Z,55.67
2019-06-26T07:02:18.806Z,55.51
2019-06-26T07:04:48.864Z,55.11
2019-06-26T07:07:19.037Z,54.53
2019-06-26T07:09:49.405Z,54.65
2019-06-26T07:12:20.915Z,54.31
2019-06-26T07:14:51.919Z,54.42
2019-06-26T07:17:21.984Z,54.55
2019-06-26T07:19:53.104Z,54.64
2019-06-26T07:22:23.326Z,54.57
2019-06-26T07:24:53.423Z,53.93
2019-06-26T07:27:23.461Z,53.15
2019-06-26T07:29:54.015Z,53.79
2019-06-26T07:32:24.193Z,53.89
2019-06-26T07:34:54.661Z,53.92
2019-06-26T07:37:25.340Z,53.56
2019-06-26T07:40:01.348Z,53.15
2019-06-26T07:42:27.996Z,52.74
2019-06-26T07:44:58.156Z,52.85
2019-06-26T07:47:42.471Z,52.65
2019-06-26T07:50:00.736Z,52.05
2019-06-26T07:52:31.887Z,52.07
2019-06-26T07:55:01.926Z,52.56
2019-06-26T07:57:31.929Z,52.44
2019-06-26T08:00:02.830Z,51.17
2019-06-26T08:02:32.883Z,51.25
2019-06-26T08:05:03.008Z,51.63
2019-06-26T08:07:33.562Z,51.76
2019-06-26T08:10:03.770Z,51.39
2019-06-26T08:12:34.546Z,51.36
2019-06-26T08:15:05.629Z,51.20
2019-06-26T08:17:35.689Z,51.07
2019-06-26T08:20:07.641Z,50.76
2019-06-26T08:22:38.066Z,50.70
2019-06-26T08:25:08.400Z,50.48
2019-06-26T08:27:38.719Z,50.63
2019-06-26T08:30:09.069Z,51.42
2019-06-26T08:32:39.205Z,51.50
2019-06-26T08:35:10.222Z,51.49
2019-06-26T08:37:40.290Z,51.54
2019-06-26T08:40:10.464Z,52.27
2019-06-26T08:42:40.783Z,52.79
2019-06-26T08:45:10.956Z,52.91
2019-06-26T08:47:42.664Z,52.96
2019-06-26T08:50:14.636Z,53.28
2019-06-26T08:52:44.655Z,53.54
2019-06-26T08:55:15.704Z,53.71
2019-06-26T08:57:47.097Z,53.31
2019-06-26T09:00:17.773Z,53.74
2019-06-26T09:02:48.268Z,54.73
2019-06-26T09:05:20.081Z,55.69
2019-06-26T09:07:50.797Z,55.96
2019-06-26T09:10:21.289Z,56.01
2019-06-26T09:12:51.490Z,56.12
2019-06-26T09:15:21.884Z,55.44
2019-06-26T09:17:52.866Z,55.62
2019-06-26T09:20:30.583Z,55.84
2019-06-26T09:23:00.680Z,55.05
2019-06-26T09:25:31.386Z,55.51
2019-06-26T09:28:01.494Z,54.93
2019-06-26T09:30:31.880Z,54.93
2019-06-26T09:33:02.464Z,54.58
2019-06-26T09:35:33.393Z,54.90
2019-06-26T09:38:05.655Z,54.09
2019-06-26T09:40:36.162Z,53.63
2019-06-26T09:43:06.814Z,54.95
2019-06-26T09:45:36.937Z,55.04
2019-06-26T09:48:14.417Z,54.67
2019-06-26T09:50:45.410Z,52.88
2019-06-26T09:53:15.553Z,50.43
2019-06-26T09:55:45.924Z,48.53
2019-06-26T09:58:17.249Z,45.82
2019-06-26T10:00:48.003Z,43.80
2019-06-26T10:03:18.439Z,42.68
2019-06-26T10:05:48.560Z,42.32
2019-06-26T10:08:18.982Z,40.97
2019-06-26T10:10:49.087Z,40.26
2019-06-26T10:13:20.164Z,38.45
2019-06-26T10:15:50.555Z,38.39
2019-06-26T10:18:20.662Z,38.26
2019-06-26T10:20:51.648Z,38.30
2019-06-26T10:23:22.071Z,36.19
2019-06-26T10:25:52.116Z,34.25
2019-06-26T10:28:22.324Z,34.73
2019-06-26T10:30:52.497Z,35.61
2019-06-26T10:33:22.545Z,35.86
2019-06-26T10:35:52.742Z,35.64
2019-06-26T10:38:23.223Z,34.17
2019-06-26T10:40:53.460Z,34.58
2019-06-26T10:43:23.743Z,35.24
2019-06-26T10:45:54.112Z,35.46
2019-06-26T10:48:24.318Z,36.09
2019-06-26T10:50:58.771Z,35.42
2019-06-26T10:53:26.814Z,35.57
2019-06-26T10:55:57.182Z,35.00
2019-06-26T10:58:28.634Z,34.68
2019-06-26T11:00:59.147Z,34.22
2019-06-26T11:03:29.373Z,34.00
2019-06-26T11:05:59.880Z,33.46
2019-06-26T11:08:30.799Z,33.53
2019-06-26T11:11:01.082Z,33.35
2019-06-26T11:13:32.144Z,33.87
2019-06-26T11:16:03.083Z,33.87
2019-06-26T11:18:33.619Z,34.45
2019-06-26T11:21:04.762Z,34.91
2019-06-26T11:23:34.909Z,35.19
2019-06-26T11:26:05.305Z,35.82
2019-06-26T11:28:35.682Z,36.91
2019-06-26T11:31:07.347Z,36.69
2019-06-26T11:33:37.721Z,36.74
2019-06-26T11:36:08.120Z,36.67
2019-06-26T11:38:38.238Z,36.65
2019-06-26T11:41:08.361Z,36.03
2019-06-26T11:43:38.854Z,35.57
2019-06-26T11:46:09.352Z,36.36
2019-06-26T11:48:40.094Z,36.48
2019-06-26T11:51:10.635Z,36.29
2019-06-26T11:53:40.734Z,36.14
2019-06-26T11:56:11.720Z,36.21
2019-06-26T11:58:42.260Z,34.08
2019-06-26T12:01:13.434Z,34.58
2019-06-26T12:03:43.489Z,35.35
2019-06-26T12:06:18.907Z,36.13
2019-06-26T12:08:45.347Z,36.00
2019-06-26T12:11:15.659Z,35.86
2019-06-26T12:13:45.851Z,35.47
2019-06-26T12:16:16.317Z,35.00
2019-06-26T12:18:47.810Z,35.78
2019-06-26T12:21:18.729Z,36.15
2019-06-26T12:23:49.001Z,36.72
2019-06-26T12:26:19.466Z,36.68
2019-06-26T12:28:50.413Z,36.58
2019-06-26T12:31:20.578Z,36.24
2019-06-26T12:33:51.617Z,35.88
2019-06-26T12:36:23.940Z,35.56
2019-06-26T12:38:54.124Z,35.30
2019-06-26T12:41:24.210Z,35.79
2019-06-26T12:43:55.223Z,35.85
2019-06-26T12:46:26.059Z,36.02
2019-06-26T12:48:56.128Z,35.61
2019-06-26T12:51:27.731Z,36.01
2019-06-26T12:53:58.618Z,35.48
2019-06-26T12:56:29.915Z,36.28
2019-06-26T12:59:00.683Z,36.60
2019-06-26T13:01:31.415Z,36.61
2019-06-26T13:04:02.042Z,35.41
2019-06-26T13:06:35.655Z,35.06
2019-06-26T13:09:08.158Z,33.03
2019-06-26T13:11:38.864Z,33.09
2019-06-26T13:14:09.863Z,33.67
2019-06-26T13:16:45.921Z,33.36
2019-06-26T13:19:16.761Z,33.21
2019-06-26T13:21:47.078Z,32.90
2019-06-26T13:24:17.682Z,33.61
2019-06-26T13:26:48.729Z,33.97
2019-06-26T13:29:19.216Z,33.91
2019-06-26T13:31:50.016Z,32.33
2019-06-26T13:34:21.147Z,32.39
2019-06-26T13:36:51.295Z,33.21
2019-06-26T13:39:21.445Z,33.66
2019-06-26T13:41:52.488Z,33.86
2019-06-26T13:44:22.680Z,32.76
2019-06-26T13:46:54.423Z,32.42
2019-06-26T13:49:25.332Z,33.09
2019-06-26T13:51:55.687Z,32.39
2019-06-26T13:54:26.628Z,33.73
2019-06-26T13:56:56.727Z,33.90
2019-06-26T13:59:26.823Z,33.39
2019-06-26T14:01:58.937Z,32.02
2019-06-26T14:04:29.078Z,30.69
2019-06-26T14:06:59.275Z,30.96
2019-06-26T14:09:29.498Z,31.65
2019-06-26T14:11:59.632Z,31.96
2019-06-26T14:14:52.740Z,32.37
2019-06-26T14:17:01.976Z,33.35
2019-06-26T14:19:32.623Z,34.14
2019-06-26T14:22:02.713Z,34.47
2019-06-26T14:24:33.024Z,35.44
2019-06-26T14:27:03.241Z,35.76
2019-06-26T14:29:34.046Z,36.63
2019-06-26T14:32:05.447Z,36.98
2019-06-26T14:34:36.372Z,37.21
2019-06-26T14:37:06.520Z,37.17
2019-06-26T14:39:36.576Z,37.23
2019-06-26T14:42:08.310Z,35.98
2019-06-26T14:44:38.536Z,35.16
2019-06-26T14:47:09.235Z,35.66
2019-06-26T14:49:39.799Z,34.14
2019-06-26T14:52:10.848Z,32.92
2019-06-26T14:54:41.396Z,33.68
2019-06-26T14:57:11.480Z,35.86
2019-06-26T14:59:42.347Z,34.85
2019-06-26T15:02:12.781Z,34.25
2019-06-26T15:04:46.098Z,33.82
2019-06-26T15:07:15.340Z,33.57
2019-06-26T15:09:45.394Z,34.85
2019-06-26T15:12:16.168Z,33.33
2019-06-26T15:14:48.204Z,31.87
2019-06-26T15:17:18.307Z,34.29
2019-06-26T15:19:48.369Z,33.94
2019-06-26T15:22:18.890Z,34.74
2019-06-26T15:24:49.294Z,35.12
2019-06-26T15:27:20.023Z,36.04
2019-06-26T15:29:51.379Z,35.23
2019-06-26T15:32:21.496Z,35.63
2019-06-26T15:34:52.073Z,35.18
2019-06-26T15:37:22.621Z,36.25
2019-06-26T15:39:53.129Z,36.56
2019-06-26T15:42:23.659Z,36.13
2019-06-26T15:44:53.776Z,37.28
2019-06-26T15:47:24.988Z,37.59
2019-06-26T15:49:55.770Z,38.62
2019-06-26T15:52:31.445Z,39.05
2019-06-26T15:55:00.560Z,38.82
2019-06-26T15:57:30.981Z,39.06
2019-06-26T16:00:01.202Z,39.76
2019-06-26T16:02:31.803Z,39.61
2019-06-26T16:05:02.304Z,40.58
2019-06-26T16:07:32.431Z,40.93
2019-06-26T16:10:02.722Z,40.63
2019-06-26T16:12:33.813Z,40.82
2019-06-26T16:15:04.330Z,40.87
2019-06-26T16:17:52.899Z,40.90
2019-06-26T16:20:23.017Z,40.25
2019-06-26T16:22:53.406Z,40.57
2019-06-26T16:25:24.624Z,41.46
2019-06-26T16:28:04.580Z,41.83
2019-06-26T16:30:26.901Z,42.13
2019-06-26T16:32:57.176Z,42.02
2019-06-26T16:35:27.755Z,41.80
2019-06-26T16:37:58.505Z,42.40
2019-06-26T16:40:29.384Z,42.35
2019-06-26T16:42:59.567Z,43.66
2019-06-26T16:45:30.091Z,43.68
2019-06-26T16:48:00.501Z,43.58
2019-06-26T16:50:30.859Z,43.90
2019-06-26T16:53:02.725Z,43.61
2019-06-26T16:55:33.364Z,43.66
2019-06-26T16:58:03.660Z,44.04
2019-06-26T17:00:34.315Z,43.75
2019-06-26T17:03:04.843Z,43.48
2019-06-26T17:05:35.031Z,43.56
2019-06-26T17:08:05.559Z,43.81
2019-06-26T17:10:36.181Z,44.37
2019-06-26T17:13:06.661Z,44.37
2019-06-26T17:15:37.216Z,44.60
2019-06-26T17:18:07.362Z,45.11
2019-06-26T17:20:38.495Z,45.86
2019-06-26T17:23:08.617Z,46.58
2019-06-26T17:25:39.103Z,46.97
2019-06-26T17:28:09.266Z,47.34
2019-06-26T17:30:39.412Z,48.28
2019-06-26T17:33:10.064Z,49.78
2019-06-26T17:35:40.695Z,50.16
2019-06-26T17:38:11.197Z,49.66
2019-06-26T17:40:41.837Z,50.16
2019-06-26T17:43:13.296Z,49.54
2019-06-26T17:45:43.767Z,50.23
2019-06-26T17:48:13.908Z,50.99
2019-06-26T17:50:44.464Z,51.51
2019-06-26T17:53:21.473Z,51.61
2019-06-26T17:55:47.694Z,51.84
2019-06-26T17:58:18.513Z,52.50
2019-06-26T18:00:48.964Z,53.26
2019-06-26T18:03:23.790Z,53.30
2019-06-26T18:05:54.499Z,53.68
2019-06-26T18:08:25.132Z,53.29
2019-06-26T18:10:55.253Z,52.42
2019-06-26T18:13:27.329Z,52.45
2019-06-26T18:15:57.541Z,53.48
2019-06-26T18:18:29.469Z,54.21
2019-06-26T18:20:59.646Z,54.83
2019-06-26T18:23:37.810Z,55.20
2019-06-26T18:26:12.377Z,55.91
2019-06-26T18:28:34.586Z,56.44
2019-06-26T18:31:04.742Z,57.22
2019-06-26T18:33:35.889Z,57.58
2019-06-26T18:36:07.274Z,58.07
2019-06-26T18:38:37.395Z,58.16
2019-06-26T18:41:07.633Z,58.32
2019-06-26T18:43:37.880Z,58.13
2019-06-26T18:46:08.383Z,58.42
2019-06-26T18:48:38.532Z,58.47
2019-06-26T18:51:09.368Z,58.35
2019-06-26T18:53:52.825Z,58.31
2019-06-26T18:56:11.612Z,58.54
2019-06-26T18:58:41.873Z,58.70
2019-06-26T19:01:12.255Z,59.03
2019-06-26T19:03:43.013Z,58.85
2019-06-26T19:06:13.395Z,58.70
2019-06-26T19:08:45.253Z,58.84
2019-06-26T19:11:15.745Z,59.41
2019-06-26T19:13:45.926Z,59.66
2019-06-26T19:16:16.047Z,59.76
2019-06-26T19:18:46.165Z,59.84
2019-06-26T19:21:16.634Z,60.08
2019-06-26T19:23:46.710Z,60.46
2019-06-26T19:26:17.597Z,60.68
2019-06-26T19:28:47.730Z,60.67
2019-06-26T19:31:18.595Z,60.75
2019-06-26T19:33:48.768Z,61.09
2019-06-26T19:36:19.296Z,61.55
2019-06-26T19:38:49.419Z,61.55
2019-06-26T19:41:19.882Z,61.34
2019-06-26T19:43:50.640Z,61.36
2019-06-26T19:46:21.415Z,62.06
2019-06-26T19:48:51.562Z,62.10
2019-06-26T19:51:21.593Z,62.04
2019-06-26T19:53:51.645Z,62.08
2019-06-26T19:56:22.268Z,62.39
2019-06-26T19:58:52.797Z,62.92
2019-06-26T20:01:23.005Z,63.19
2019-06-26T20:03:53.756Z,63.42
2019-06-26T20:06:24.537Z,63.50
2019-06-26T20:08:57.617Z,63.82
2019-06-26T20:11:28.081Z,64.31
2019-06-26T20:13:59.238Z,64.35
2019-06-26T20:16:29.758Z,64.25
2019-06-26T20:19:00.294Z,64.29
2019-06-26T20:21:31.316Z,64.49
2019-06-26T20:24:02.247Z,64.83
2019-06-26T20:26:33.799Z,65.09
2019-06-26T20:29:04.927Z,65.30
2019-06-26T20:31:35.965Z,65.37
2019-06-26T20:34:06.618Z,65.42
2019-06-26T20:36:38.053Z,64.96
2019-06-26T20:39:09.135Z,64.57
2019-06-26T20:41:39.464Z,64.19
2019-06-26T20:44:10.260Z,64.41
2019-06-26T20:46:41.167Z,64.25
2019-06-26T20:49:11.289Z,64.43
2019-06-26T20:51:41.956Z,64.43
2019-06-26T20:54:14.533Z,64.80
2019-06-26T20:56:46.799Z,65.06
2019-06-26T20:59:17.428Z,65.59
2019-06-26T21:01:48.782Z,65.73
2019-06-26T21:04:19.384Z,65.39
2019-06-26T21:06:49.532Z,65.00
2019-06-26T21:09:21.361Z,64.74
2019-06-26T21:11:51.423Z,64.50
2019-06-26T21:14:21.529Z,64.58
2019-06-26T21:16:51.679Z,64.86
2019-06-26T21:19:21.694Z,65.21
2019-06-26T21:21:52.721Z,65.25
2019-06-26T21:24:23.182Z,65.37
2019-06-26T21:26:53.197Z,65.64
2019-06-26T21:29:24.394Z,65.78
2019-06-26T21:31:54.482Z,65.74
2019-06-26T21:34:25.669Z,65.69
2019-06-26T21:36:55.995Z,65.69
2019-06-26T21:39:26.461Z,65.37
2019-06-26T21:41:57.936Z,64.76
2019-06-26T21:44:28.918Z,64.62
2019-06-26T21:46:59.291Z,64.84
2019-06-26T21:49:29.357Z,64.97
2019-06-26T21:52:00.258Z,65.17
2019-06-26T21:54:31.100Z,64.82
2019-06-26T21:57:01.184Z,65.05
2019-06-26T21:59:31.755Z,64.99
2019-06-26T22:02:02.668Z,65.02
2019-06-26T22:04:33.536Z,65.09
2019-06-26T22:07:03.738Z,65.40
2019-06-26T22:09:34.347Z,65.60
2019-06-26T22:12:04.488Z,65.61
2019-06-26T22:14:34.697Z,65.95
2019-06-26T22:17:04.895Z,66.17
2019-06-26T22:19:35.081Z,66.23
2019-06-26T22:22:05.535Z,66.41
2019-06-26T22:24:36.384Z,66.55
2019-06-26T22:27:06.873Z,66.69
2019-06-26T22:29:37.435Z,66.88
2019-06-26T22:32:08.341Z,67.07
2019-06-26T22:34:38.727Z,66.95
2019-06-26T22:37:09.629Z,66.93
2019-06-26T22:39:40.416Z,66.95
2019-06-26T22:42:10.929Z,66.69
2019-06-26T22:44:41.507Z,66.92
2019-06-26T22:47:12.449Z,67.15
2019-06-26T22:49:42.564Z,67.11
2019-06-26T22:52:12.588Z,67.06
2019-06-26T22:54:43.324Z,67.16
2019-06-26T22:57:13.657Z,67.40
2019-06-26T22:59:44.088Z,67.32
2019-06-26T23:02:15.072Z,66.97
2019-06-26T23:04:45.479Z,66.63
2019-06-26T23:07:15.486Z,66.71
2019-06-26T23:09:46.128Z,67.06
2019-06-26T23:12:16.727Z,67.23
2019-06-26T23:14:46.986Z,67.03
2019-06-26T23:17:17.457Z,67.39
2019-06-26T23:19:47.942Z,67.52
2019-06-26T23:22:17.965Z,67.58
2019-06-26T23:24:49.903Z,67.69
2019-06-26T23:27:20.444Z,67.48
2019-06-26T23:29:50.502Z,67.67
2019-06-26T23:32:20.864Z,68.09
2019-06-26T23:34:50.923Z,67.65
2019-06-26T23:37:22.477Z,67.54
2019-06-26T23:39:52.570Z,67.54
2019-06-26T23:42:23.059Z,67.62
2019-06-26T23:44:53.539Z,67.13
2019-06-26T23:47:24.423Z,67.33
2019-06-26T23:49:55.408Z,67.33
2019-06-26T23:52:25.860Z,67.25
2019-06-26T23:54:55.907Z,66.84
2019-06-26T23:57:26.169Z,66.55
2019-06-26T23:59:57.578Z,66.93
